createdAt,value
2022-10-05T00:01:55.018Z,97416.63
2022-10-05T00:04:29.005Z,97413.09
2022-10-05T00:07:15.270Z,97413.81
2022-10-05T00:09:42.706Z,97419.94
2022-10-05T00:12:29.738Z,97421.75
2022-10-05T00:15:01.181Z,97425.69
2022-10-05T00:17:30.276Z,97425.22
2022-10-05T00:19:56.895Z,97410.81
2022-10-05T00:22:29.844Z,97424.13
2022-10-05T00:24:59.548Z,97417.63
2022-10-05T00:27:37.577Z,97427.69
2022-10-05T00:30:17.166Z,97430.09
2022-10-05T00:32:44.606Z,97437.72
2022-10-05T00:35:12.680Z,97441.16
2022-10-05T00:37:40.041Z,97439.63
2022-10-05T00:40:47.608Z,97437.53
2022-10-05T00:43:20.178Z,97439.38
2022-10-05T00:46:03.199Z,97451.38
2022-10-05T00:48:39.982Z,97455.88
2022-10-05T00:51:36.909Z,97452.22
2022-10-05T00:54:36.617Z,97464.03
2022-10-05T00:57:23.936Z,97462.97
2022-10-05T01:00:12.481Z,97455.88
2022-10-05T01:02:46.508Z,97451.50
2022-10-05T01:05:23.506Z,97440.56
2022-10-05T01:08:00.635Z,97438.53
2022-10-05T01:10:36.236Z,97432.97
2022-10-05T01:13:31.143Z,97424.50
2022-10-05T01:16:07.555Z,97406.34
2022-10-05T01:18:51.059Z,97397.00
2022-10-05T01:21:27.105Z,97389.72
2022-10-05T01:24:12.115Z,97365.34
2022-10-05T01:26:57.769Z,97370.06
2022-10-05T01:29:36.029Z,97367.59
2022-10-05T01:32:15.196Z,97357.47
2022-10-05T01:34:57.642Z,97330.25
2022-10-05T01:37:45.533Z,97333.22
2022-10-05T01:40:30.977Z,97335.91
2022-10-05T01:43:03.382Z,97327.59
2022-10-05T01:45:55.410Z,97316.06
2022-10-05T01:48:37.956Z,97326.91
2022-10-05T01:51:35.400Z,97315.59
2022-10-05T01:54:39.409Z,97313.47
2022-10-05T01:57:33.303Z,97302.81
2022-10-05T02:00:14.417Z,97310.00
2022-10-05T02:03:04.898Z,97304.50
2022-10-05T02:05:56.478Z,97307.69
2022-10-05T02:08:26.012Z,97305.13
2022-10-05T02:11:05.347Z,97313.22
2022-10-05T02:13:34.743Z,97307.19
2022-10-05T02:16:07.198Z,97319.38
2022-10-05T02:18:44.210Z,97323.00
2022-10-05T02:21:10.843Z,97328.03
2022-10-05T02:23:40.850Z,97338.31
2022-10-05T02:26:10.932Z,97332.72
2022-10-05T02:28:46.969Z,97341.50
2022-10-05T02:31:17.830Z,97340.66
2022-10-05T02:33:46.041Z,97351.31
2022-10-05T02:36:34.526Z,97349.78
2022-10-05T02:39:13.213Z,97345.06
2022-10-05T02:41:58.184Z,97353.13
2022-10-05T02:44:35.636Z,97356.00
2022-10-05T02:47:08.385Z,97350.53
2022-10-05T02:49:40.824Z,97361.84
2022-10-05T02:52:16.689Z,97356.97
2022-10-05T02:54:46.280Z,97359.75
2022-10-05T02:57:26.238Z,97360.56
2022-10-05T02:59:59.352Z,97367.00
2022-10-05T03:02:41.256Z,97363.69
2022-10-05T03:05:28.028Z,97369.50
2022-10-05T03:08:03.771Z,97374.47
2022-10-05T03:10:50.073Z,97372.56
2022-10-05T03:13:25.391Z,97369.09
2022-10-05T03:16:10.039Z,97351.16
2022-10-05T03:18:45.757Z,97350.38
2022-10-05T03:21:38.728Z,97345.84
2022-10-05T03:24:34.662Z,97338.91
2022-10-05T03:27:29.902Z,97332.63
2022-10-05T03:30:15.358Z,97335.31
2022-10-05T03:32:51.182Z,97329.59
2022-10-05T03:35:29.924Z,97325.50
2022-10-05T03:38:29.935Z,97313.34
2022-10-05T03:41:23.203Z,97319.00
2022-10-05T03:44:02.000Z,97308.81
2022-10-05T03:47:08.998Z,97310.63
2022-10-05T03:49:54.083Z,97299.56
2022-10-05T03:52:28.183Z,97300.03
2022-10-05T03:55:01.114Z,97293.97
2022-10-05T03:57:32.316Z,97283.13
2022-10-05T04:00:05.141Z,97294.59
2022-10-05T04:02:49.321Z,97279.00
2022-10-05T04:05:21.781Z,97280.06
2022-10-05T04:08:04.033Z,97283.13
2022-10-05T04:10:48.264Z,97278.56
2022-10-05T04:13:31.541Z,97277.91
2022-10-05T04:16:18.260Z,97275.19
2022-10-05T04:19:04.215Z,97284.34
2022-10-05T04:21:44.622Z,97277.78
2022-10-05T04:24:36.568Z,97273.19
2022-10-05T04:27:12.064Z,97277.59
2022-10-05T04:29:51.089Z,97274.56
2022-10-05T04:32:35.914Z,97259.41
2022-10-05T04:35:33.466Z,97272.59
2022-10-05T04:38:21.084Z,97273.00
2022-10-05T04:41:00.525Z,97259.22
2022-10-05T04:43:36.525Z,97248.97
2022-10-05T04:46:25.861Z,97247.31
2022-10-05T04:49:20.312Z,97251.56
2022-10-05T04:52:01.974Z,97249.56
2022-10-05T04:55:03.986Z,97257.88
2022-10-05T04:57:45.999Z,97258.63
2022-10-05T05:00:23.286Z,97262.31
2022-10-05T05:02:56.942Z,97254.97
2022-10-05T05:06:17.255Z,97253.13
2022-10-05T05:09:19.216Z,97252.81
2022-10-05T05:12:01.004Z,97257.72
2022-10-05T05:14:41.624Z,97263.06
2022-10-05T05:17:30.118Z,97261.41
2022-10-05T05:20:05.865Z,97264.91
2022-10-05T05:22:52.973Z,97264.78
2022-10-05T05:25:30.408Z,97272.13
2022-10-05T05:28:28.354Z,97267.06
2022-10-05T05:31:08.232Z,97273.47
2022-10-05T05:33:53.268Z,97266.91
2022-10-05T05:36:24.961Z,97264.47
2022-10-05T05:39:06.986Z,97275.59
2022-10-05T05:41:42.797Z,97264.78
2022-10-05T05:44:38.547Z,97258.44
2022-10-05T05:47:20.720Z,97261.41
2022-10-05T05:50:20.162Z,97263.19
2022-10-05T05:53:03.325Z,97267.97
2022-10-05T05:55:35.330Z,97261.81
2022-10-05T05:58:12.234Z,97267.97
2022-10-05T06:00:48.533Z,97271.50
2022-10-05T06:03:26.323Z,97271.34
2022-10-05T06:05:57.982Z,97266.41
2022-10-05T06:08:42.097Z,97268.25
2022-10-05T06:11:42.645Z,97275.13
2022-10-05T06:14:17.265Z,97263.28
2022-10-05T06:16:55.347Z,97263.44
2022-10-05T06:19:24.133Z,97261.09
2022-10-05T06:22:02.656Z,97259.25
2022-10-05T06:24:29.268Z,97257.53
2022-10-05T06:27:29.838Z,97262.69
2022-10-05T06:30:04.580Z,97252.44
2022-10-05T06:33:14.098Z,97257.59
2022-10-05T06:35:55.782Z,97254.81
2022-10-05T06:38:31.627Z,97259.41
2022-10-05T06:41:27.223Z,97255.69
2022-10-05T06:44:00.062Z,97265.84
2022-10-05T06:47:20.780Z,97273.97
2022-10-05T06:50:30.005Z,97279.47
2022-10-05T06:53:29.979Z,97278.41
2022-10-05T06:56:09.929Z,97277.72
2022-10-05T06:58:54.855Z,97276.47
2022-10-05T07:01:41.161Z,97293.84
2022-10-05T07:04:11.049Z,97301.50
2022-10-05T07:06:50.934Z,97305.97
2022-10-05T07:09:40.634Z,97330.94
2022-10-05T07:12:34.942Z,97326.44
2022-10-05T07:15:20.938Z,97340.06
2022-10-05T07:18:06.407Z,97326.59
2022-10-05T07:20:49.029Z,97395.53
2022-10-05T07:23:27.768Z,97527.38
2022-10-05T07:25:58.679Z,97577.34
2022-10-05T07:28:40.666Z,97658.13
2022-10-05T07:31:15.770Z,97695.16
2022-10-05T07:33:56.982Z,97765.34
2022-10-05T07:37:19.337Z,97693.41
2022-10-05T07:40:02.364Z,97749.47
2022-10-05T07:42:59.932Z,97783.25
2022-10-05T07:45:38.022Z,97744.44
2022-10-05T07:48:26.502Z,97734.34
2022-10-05T07:51:11.392Z,97810.78
2022-10-05T07:53:43.795Z,97783.97
2022-10-05T07:56:36.699Z,97721.25
2022-10-05T07:59:13.993Z,97712.84
2022-10-05T08:01:46.504Z,97707.69
2022-10-05T08:04:28.039Z,97693.16
2022-10-05T08:07:09.203Z,97694.34
2022-10-05T08:09:55.001Z,97686.28
2022-10-05T08:12:40.152Z,97686.22
2022-10-05T08:15:15.799Z,97678.00
2022-10-05T08:18:01.647Z,97649.41
2022-10-05T08:20:49.838Z,97662.75
2022-10-05T08:23:23.932Z,97674.16
2022-10-05T08:26:25.937Z,97649.41
2022-10-05T08:29:13.774Z,97649.94
2022-10-05T08:31:45.620Z,97644.00
2022-10-05T08:34:34.715Z,97668.63
2022-10-05T08:37:22.080Z,97675.69
2022-10-05T08:40:13.585Z,97668.13
2022-10-05T08:43:14.270Z,97665.16
2022-10-05T08:45:57.714Z,97680.31
2022-10-05T08:48:49.361Z,97734.97
2022-10-05T08:51:53.410Z,97693.16
2022-10-05T08:54:47.251Z,97717.13
2022-10-05T08:57:38.470Z,97728.03
2022-10-05T09:00:13.000Z,97762.47
2022-10-05T09:03:03.791Z,97794.13
2022-10-05T09:05:57.720Z,97797.50
2022-10-05T09:08:31.027Z,97796.63
2022-10-05T09:11:26.510Z,97817.41
2022-10-05T09:14:03.849Z,97815.09
2022-10-05T09:16:55.803Z,97851.53
2022-10-05T09:19:31.139Z,97830.25
2022-10-05T09:22:23.343Z,97847.97
2022-10-05T09:25:08.647Z,97832.44
2022-10-05T09:27:42.964Z,97828.56
2022-10-05T09:30:33.735Z,97861.31
2022-10-05T09:33:33.659Z,97874.09
2022-10-05T09:36:18.639Z,97841.41
2022-10-05T09:39:22.927Z,97846.72
2022-10-05T09:41:56.635Z,97886.63
2022-10-05T09:44:57.066Z,97924.25
2022-10-05T09:47:45.248Z,97915.19
2022-10-05T09:50:38.137Z,97957.31
2022-10-05T09:53:43.656Z,97949.22
2022-10-05T09:56:43.986Z,97936.41
2022-10-05T09:59:33.054Z,97976.88
2022-10-05T10:02:27.665Z,97983.59
2022-10-05T10:05:05.879Z,97994.50
2022-10-05T10:08:20.262Z,98023.19
2022-10-05T10:10:55.809Z,98016.34
2022-10-05T10:13:46.770Z,98050.06
2022-10-05T10:16:27.107Z,98059.19
2022-10-05T10:18:59.946Z,98082.66
2022-10-05T10:21:45.613Z,98022.94
2022-10-05T10:24:25.554Z,98058.34
2022-10-05T10:27:21.352Z,98066.13
2022-10-05T10:30:03.513Z,98065.81
2022-10-05T10:33:00.833Z,98056.47
2022-10-05T10:35:39.869Z,98048.78
2022-10-05T10:38:40.272Z,98046.16
2022-10-05T10:41:06.825Z,98029.59
2022-10-05T10:44:11.159Z,98076.88
2022-10-05T10:46:56.471Z,98056.25
2022-10-05T10:49:36.579Z,98061.81
2022-10-05T10:52:09.120Z,98049.06
2022-10-05T10:55:13.339Z,98055.84
2022-10-05T10:57:58.000Z,98032.34
2022-10-05T11:00:37.063Z,98047.88
2022-10-05T11:03:31.201Z,98052.19
2022-10-05T11:06:22.393Z,97976.16
2022-10-05T11:09:16.884Z,97989.28
2022-10-05T11:12:02.097Z,97987.94
2022-10-05T11:14:37.643Z,98012.34
2022-10-05T11:17:15.596Z,98036.38
2022-10-05T11:20:07.060Z,98081.44
2022-10-05T11:23:04.825Z,98060.59
2022-10-05T11:25:37.245Z,98067.50
2022-10-05T11:28:27.512Z,98052.31
2022-10-05T11:31:04.679Z,98075.63
2022-10-05T11:33:56.153Z,98073.84
2022-10-05T11:36:32.437Z,98042.09
2022-10-05T11:39:20.777Z,98009.31
2022-10-05T11:42:05.848Z,98042.13
2022-10-05T11:45:22.949Z,98081.00
2022-10-05T11:47:52.194Z,98074.53
2022-10-05T11:50:38.530Z,98086.88
2022-10-05T11:53:11.209Z,98103.06
2022-10-05T11:55:48.602Z,98095.09
2022-10-05T11:58:41.194Z,98092.66
2022-10-05T12:01:10.634Z,98117.34
2022-10-05T12:03:50.683Z,98106.03
2022-10-05T12:06:38.934Z,98132.53
2022-10-05T12:09:05.438Z,98156.03
2022-10-05T12:11:39.603Z,98167.41
2022-10-05T12:14:37.934Z,98143.59
2022-10-05T12:17:11.297Z,98116.00
2022-10-05T12:19:43.927Z,98129.34
2022-10-05T12:22:10.788Z,98130.97
2022-10-05T12:24:37.275Z,98158.47
2022-10-05T12:27:12.928Z,98172.34
2022-10-05T12:29:51.252Z,98176.28
2022-10-05T12:32:24.258Z,98164.22
2022-10-05T12:35:01.615Z,98161.19
2022-10-05T12:38:00.130Z,98162.94
2022-10-05T12:40:52.596Z,98153.03
2022-10-05T12:43:29.471Z,98158.97
2022-10-05T12:46:31.315Z,98155.91
2022-10-05T12:49:26.709Z,98149.78
2022-10-05T12:52:06.016Z,98147.47
2022-10-05T12:54:47.810Z,98179.91
2022-10-05T12:57:41.121Z,98157.72
2022-10-05T13:00:19.034Z,98184.22
2022-10-05T13:02:53.354Z,98170.44
2022-10-05T13:05:44.824Z,98160.78
2022-10-05T13:08:38.591Z,98176.53
2022-10-05T13:11:16.986Z,98176.63
2022-10-05T13:13:51.224Z,98168.47
2022-10-05T13:16:30.698Z,98163.63
2022-10-05T13:19:09.393Z,98168.72
2022-10-05T13:22:00.720Z,98165.63
2022-10-05T13:24:38.123Z,98152.78
2022-10-05T13:27:32.710Z,98166.75
2022-10-05T13:30:12.756Z,98153.31
2022-10-05T13:32:45.810Z,98138.94
2022-10-05T13:35:21.256Z,98138.06
2022-10-05T13:38:09.696Z,98148.91
2022-10-05T13:40:53.745Z,98130.47
2022-10-05T13:43:35.648Z,98150.81
2022-10-05T13:46:14.357Z,98144.88
2022-10-05T13:48:46.493Z,98134.25
2022-10-05T13:51:28.333Z,98148.56
2022-10-05T13:53:56.075Z,98154.25
2022-10-05T13:56:40.065Z,98145.53
2022-10-05T13:59:22.288Z,98136.19
2022-10-05T14:02:12.422Z,98130.66
2022-10-05T14:04:53.397Z,98125.72
2022-10-05T14:07:50.014Z,98102.03
2022-10-05T14:10:29.406Z,98109.41
2022-10-05T14:12:56.073Z,98079.66
2022-10-05T14:15:30.375Z,98082.81
2022-10-05T14:17:57.134Z,98068.78
2022-10-05T14:20:28.238Z,98034.78
2022-10-05T14:22:59.372Z,98048.78
2022-10-05T14:25:28.281Z,98036.72
2022-10-05T14:28:01.550Z,98028.97
2022-10-05T14:30:30.084Z,98014.13
2022-10-05T14:33:05.978Z,98024.00
2022-10-05T14:35:49.561Z,98014.91
2022-10-05T14:38:31.410Z,98010.22
2022-10-05T14:41:18.965Z,97992.38
2022-10-05T14:43:56.087Z,97999.88
2022-10-05T14:46:29.105Z,98002.13
2022-10-05T14:49:22.582Z,97996.13
2022-10-05T14:51:50.619Z,98010.19
2022-10-05T14:54:52.392Z,97989.75
2022-10-05T14:57:46.354Z,98000.03
2022-10-05T15:00:17.932Z,97994.38
2022-10-05T15:03:18.200Z,97991.19
2022-10-05T15:05:53.447Z,97994.56
2022-10-05T15:08:50.908Z,97974.44
2022-10-05T15:11:26.915Z,97971.88
2022-10-05T15:13:55.413Z,97961.09
2022-10-05T15:16:31.083Z,97957.06
2022-10-05T15:19:07.386Z,97956.97
2022-10-05T15:22:01.380Z,97945.59
2022-10-05T15:24:44.020Z,97945.53
2022-10-05T15:27:21.650Z,97952.22
2022-10-05T15:30:03.324Z,97950.00
2022-10-05T15:32:45.175Z,97940.22
2022-10-05T15:35:39.109Z,97934.47
2022-10-05T15:38:12.027Z,97934.25
2022-10-05T15:41:12.157Z,97904.19
2022-10-05T15:43:46.005Z,97927.50
2022-10-05T15:46:15.406Z,97909.56
2022-10-05T15:48:54.471Z,97902.44
2022-10-05T15:51:50.843Z,97909.53
2022-10-05T15:54:42.889Z,97882.13
2022-10-05T15:57:35.535Z,97874.53
2022-10-05T16:00:04.406Z,97863.88
2022-10-05T16:02:43.464Z,97867.66
2022-10-05T16:05:43.178Z,97877.88
2022-10-05T16:08:39.787Z,97857.34
2022-10-05T16:11:16.992Z,97846.91
2022-10-05T16:13:54.432Z,97833.16
2022-10-05T16:16:28.943Z,97836.38
2022-10-05T16:19:07.046Z,97834.53
2022-10-05T16:21:58.669Z,97836.06
2022-10-05T16:24:40.618Z,97825.25
2022-10-05T16:27:21.852Z,97833.97
2022-10-05T16:30:01.764Z,97835.03
2022-10-05T16:32:39.205Z,97826.19
2022-10-05T16:35:24.962Z,97811.81
2022-10-05T16:38:13.073Z,97815.94
2022-10-05T16:41:28.599Z,97810.91
2022-10-05T16:44:13.251Z,97786.88
2022-10-05T16:46:50.751Z,97788.75
2022-10-05T16:49:42.376Z,97785.31
2022-10-05T16:52:15.854Z,97784.88
2022-10-05T16:54:53.689Z,97788.25
2022-10-05T16:57:24.427Z,97766.94
2022-10-05T17:00:30.769Z,97771.09
2022-10-05T17:03:03.618Z,97779.94
2022-10-05T17:05:38.314Z,97765.56
2022-10-05T17:08:31.727Z,97760.81
2022-10-05T17:11:06.802Z,97757.88
2022-10-05T17:13:58.129Z,97768.31
2022-10-05T17:16:43.104Z,97739.34
2022-10-05T17:19:28.217Z,97754.06
2022-10-05T17:22:07.361Z,97757.13
2022-10-05T17:24:54.202Z,97745.97
2022-10-05T17:27:29.806Z,97736.31
2022-10-05T17:30:16.391Z,97748.34
2022-10-05T17:32:56.692Z,97754.69
2022-10-05T17:35:52.515Z,97748.38
2022-10-05T17:38:31.072Z,97753.00
2022-10-05T17:41:00.371Z,97759.94
2022-10-05T17:43:31.240Z,97764.97
2022-10-05T17:46:00.673Z,97766.97
2022-10-05T17:48:44.657Z,97754.94
2022-10-05T17:51:48.177Z,97751.41
2022-10-05T17:54:46.977Z,97754.28
2022-10-05T17:57:22.225Z,97739.47
2022-10-05T17:59:57.831Z,97739.22
2022-10-05T18:02:37.021Z,97744.47
2022-10-05T18:05:06.616Z,97710.63
2022-10-05T18:07:34.728Z,97699.44
2022-10-05T18:10:11.684Z,97694.69
2022-10-05T18:13:00.861Z,97693.22
2022-10-05T18:15:27.411Z,97692.97
2022-10-05T18:17:57.342Z,97693.94
2022-10-05T18:20:34.762Z,97688.53
2022-10-05T18:23:25.450Z,97693.34
2022-10-05T18:25:56.185Z,97695.91
2022-10-05T18:28:25.752Z,97696.22
2022-10-05T18:31:23.475Z,97697.50
2022-10-05T18:34:14.880Z,97697.25
2022-10-05T18:36:48.253Z,97698.97
2022-10-05T18:39:33.379Z,97709.81
2022-10-05T18:42:13.811Z,97720.72
2022-10-05T18:44:55.446Z,97717.69
2022-10-05T18:47:31.467Z,97734.34
2022-10-05T18:50:28.286Z,97732.91
2022-10-05T18:53:30.175Z,97743.66
2022-10-05T18:56:16.642Z,97746.56
2022-10-05T18:59:19.859Z,97755.41
2022-10-05T19:02:01.191Z,97748.38
2022-10-05T19:05:05.654Z,97746.50
2022-10-05T19:07:51.465Z,97753.00
2022-10-05T19:10:42.036Z,97763.84
2022-10-05T19:13:42.671Z,97768.75
2022-10-05T19:16:09.221Z,97773.94
2022-10-05T19:19:07.525Z,97768.63
2022-10-05T19:22:00.975Z,97790.53
2022-10-05T19:24:55.361Z,97805.97
2022-10-05T19:28:13.454Z,97790.44
2022-10-05T19:31:12.210Z,97784.69
2022-10-05T19:33:54.582Z,97770.28
2022-10-05T19:37:04.524Z,97772.91
2022-10-05T19:39:54.157Z,97776.28
2022-10-05T19:42:49.669Z,97786.47
2022-10-05T19:45:23.011Z,97773.66
2022-10-05T19:47:59.253Z,97767.22
2022-10-05T19:50:33.909Z,97767.69
2022-10-05T19:53:15.129Z,97784.00
2022-10-05T19:55:47.105Z,97805.88
2022-10-05T19:58:39.657Z,97865.88
2022-10-05T20:01:06.994Z,97875.31
2022-10-05T20:03:37.971Z,97865.44
2022-10-05T20:06:07.366Z,97871.44
2022-10-05T20:08:53.704Z,97875.28
2022-10-05T20:11:27.275Z,97887.56
2022-10-05T20:13:53.779Z,97905.50
2022-10-05T20:19:49.609Z,97911.44
2022-10-05T20:22:38.108Z,97904.25
2022-10-05T20:25:18.255Z,97914.06
2022-10-05T20:27:50.366Z,97908.56
2022-10-05T20:30:18.488Z,97897.81
2022-10-05T20:32:49.577Z,97928.69
2022-10-05T20:35:18.207Z,97950.28
2022-10-05T20:37:44.825Z,97951.22
2022-10-05T20:40:11.633Z,97956.00
2022-10-05T20:42:38.315Z,97952.25
2022-10-05T20:45:06.350Z,97952.63
2022-10-05T20:47:33.807Z,97954.44
2022-10-05T20:50:03.971Z,97963.44
2022-10-05T20:52:31.714Z,97962.91
2022-10-05T20:54:58.922Z,97988.78
2022-10-05T20:57:26.687Z,98004.66
2022-10-05T20:59:53.415Z,98008.69
2022-10-05T21:02:20.266Z,98030.59
2022-10-05T21:04:47.771Z,98033.22
2022-10-05T21:07:19.675Z,98047.78
2022-10-05T21:09:46.684Z,98047.56
2022-10-05T21:12:14.071Z,98049.75
2022-10-05T21:14:40.661Z,98043.97
2022-10-05T21:17:07.830Z,98049.09
2022-10-05T21:19:38.460Z,98058.53
2022-10-05T21:22:09.590Z,98062.78
2022-10-05T21:24:38.163Z,98059.50
2022-10-05T21:27:05.423Z,98052.94
2022-10-05T21:29:32.993Z,98039.81
2022-10-05T21:31:59.838Z,98057.00
2022-10-05T21:34:26.599Z,98071.81
2022-10-05T21:36:53.154Z,98069.56
2022-10-05T21:39:20.322Z,98074.38
2022-10-05T21:41:48.715Z,98066.03
2022-10-05T21:44:16.496Z,98081.25
2022-10-05T21:46:43.110Z,98082.16
2022-10-05T21:49:09.898Z,98077.88
2022-10-05T21:51:37.131Z,98100.28
2022-10-05T21:54:10.941Z,98102.06
2022-10-05T21:56:41.670Z,98101.09
2022-10-05T21:59:11.390Z,98101.41
2022-10-05T22:01:37.991Z,98106.44
2022-10-05T22:04:05.806Z,98124.59
2022-10-05T22:06:33.604Z,98135.66
2022-10-05T22:09:00.249Z,98133.47
2022-10-05T22:11:28.029Z,98131.47
2022-10-05T22:14:02.035Z,98127.16
2022-10-05T22:16:29.424Z,98136.97
2022-10-05T22:18:56.043Z,98149.25
2022-10-05T22:21:22.706Z,98155.66
2022-10-05T22:23:49.611Z,98160.38
2022-10-05T22:26:19.385Z,98171.00
2022-10-05T22:28:46.961Z,98167.19
2022-10-05T22:31:14.349Z,98170.88
2022-10-05T22:33:41.064Z,98176.03
2022-10-05T22:36:09.369Z,98176.38
2022-10-05T22:38:35.956Z,98172.75
2022-10-05T22:41:02.572Z,98175.75
2022-10-05T22:43:29.191Z,98169.34
2022-10-05T22:45:56.158Z,98166.31
2022-10-05T22:48:22.924Z,98171.97
2022-10-05T22:50:49.522Z,98169.47
2022-10-05T22:53:16.117Z,98179.66
2022-10-05T22:55:42.650Z,98186.69
2022-10-05T22:58:09.340Z,98188.28
2022-10-05T23:00:57.121Z,98175.50
2022-10-05T23:03:23.202Z,98174.72
2022-10-05T23:05:56.413Z,98179.56
2022-10-05T23:08:22.999Z,98183.28
2022-10-05T23:10:49.533Z,98180.09
2022-10-05T23:13:16.105Z,98174.31
2022-10-05T23:15:42.686Z,98144.94
2022-10-05T23:18:09.242Z,98149.25
2022-10-05T23:20:35.768Z,98157.44
2022-10-05T23:23:02.355Z,98151.44
2022-10-05T23:25:28.915Z,98151.63
2022-10-05T23:27:55.501Z,98146.28
2022-10-05T23:30:22.138Z,98143.00
2022-10-05T23:32:48.702Z,98141.69
2022-10-05T23:35:15.295Z,98136.09
2022-10-05T23:37:43.891Z,98144.53
2022-10-05T23:40:13.487Z,98143.63
2022-10-05T23:42:41.263Z,98137.38
2022-10-05T23:45:11.861Z,98119.88
2022-10-05T23:47:39.936Z,98114.75
2022-10-05T23:50:08.221Z,98132.38
2022-10-05T23:52:35.474Z,98132.78
2022-10-05T23:55:03.486Z,98134.22
2022-10-05T23:57:30.067Z,98137.72
2022-10-05T23:59:56.636Z,98142.00
